Time;durP1;ratioP1;P1;durP2;ratioP2;P2;SDS_P1;SDS_P2;PMS_P1;PMS_P2;Temp;Humidity;BMP_temperature;BMP_pressure;BME280_temperature;BME280_humidity;BME280_pressure;Samples;Min_cycle;Max_cycle;Signal;HPM_P1;HPM_P2
2023/08/07 00:02:23;;;;;;;9.77;2.10;;;;;;;25.46;40.23;95951.63;5020277;28;20056;-30
2023/08/07 00:04:49;;;;;;;7.28;1.95;;;;;;;25.66;40.00;95946.13;5019813;28;20041;-29
2023/08/07 00:07:14;;;;;;;8.50;1.67;;;;;;;25.60;40.19;95947.50;5019144;28;20024;-30
2023/08/07 00:09:40;;;;;;;7.65;2.00;;;;;;;25.49;40.14;95942.19;5013760;28;20036;-29
2023/08/07 00:12:05;;;;;;;6.57;1.83;;;;;;;25.66;40.02;95945.38;5019202;28;20025;-29
2023/08/07 00:14:31;;;;;;;9.07;1.92;;;;;;;25.67;39.64;95944.09;5027557;28;20120;-29
2023/08/07 00:16:56;;;;;;;8.80;2.20;;;;;;;25.51;39.98;95934.81;5012885;28;20029;-29
2023/08/07 00:19:22;;;;;;;7.10;1.58;;;;;;;25.64;40.03;95937.59;5020919;28;20029;-29
2023/08/07 00:21:47;;;;;;;7.72;2.15;;;;;;;25.60;40.19;95937.13;5020331;28;20026;-29
2023/08/07 00:24:18;;;;;;;5.40;1.70;;;;;;;25.59;39.98;95930.09;5020626;28;20018;-30
2023/08/07 00:26:44;;;;;;;9.32;1.83;;;;;;;25.50;40.16;95927.78;5019882;28;20022;-29
2023/08/07 00:29:09;;;;;;;7.88;2.38;;;;;;;25.39;40.52;95937.09;5022779;28;20104;-29
2023/08/07 00:31:35;;;;;;;5.25;1.65;;;;;;;25.51;40.36;95934.06;5023453;28;20032;-29
2023/08/07 00:34:00;;;;;;;7.10;1.63;;;;;;;25.38;40.86;95943.94;5021785;28;20361;-29
2023/08/07 00:36:28;;;;;;;6.25;2.00;;;;;;;25.41;41.06;95936.56;5023569;28;20101;-28
2023/08/07 00:38:53;;;;;;;8.23;2.13;;;;;;;25.49;41.35;95919.97;5023796;28;20524;-29
2023/08/07 00:41:20;;;;;;;7.78;2.05;;;;;;;25.42;41.74;95926.94;5027163;28;20034;-28
2023/08/07 00:43:45;;;;;;;9.82;2.20;;;;;;;25.35;42.13;95933.13;5020078;28;20018;-29
2023/08/07 00:46:11;;;;;;;5.53;1.77;;;;;;;25.74;41.83;95927.50;5019591;28;20026;-29
2023/08/07 00:48:36;;;;;;;10.88;2.25;;;;;;;25.70;41.71;95929.16;5019639;28;20041;-29
2023/08/07 00:51:04;;;;;;;8.13;2.00;;;;;;;25.83;41.66;95926.31;5019814;28;20432;-30
2023/08/07 00:53:30;;;;;;;11.02;2.25;;;;;;;25.74;42.54;95924.00;5020906;28;20017;-29
2023/08/07 00:55:57;;;;;;;10.07;2.20;;;;;;;25.50;43.10;95921.47;5018364;28;20362;-29
2023/08/07 00:58:23;;;;;;;14.18;2.92;;;;;;;25.47;42.83;95920.50;5025250;28;20032;-29
2023/08/07 01:00:49;;;;;;;7.50;1.83;;;;;;;25.35;43.48;95928.34;5026730;28;20025;-29
2023/08/07 01:03:14;;;;;;;8.70;1.88;;;;;;;25.43;43.45;95928.44;5026579;28;20079;-30
2023/08/07 01:05:40;;;;;;;7.95;1.85;;;;;;;25.32;43.87;95926.66;5018178;28;20026;-29
2023/08/07 01:08:05;;;;;;;14.55;2.45;;;;;;;25.36;43.84;95935.38;5022467;28;20026;-29
2023/08/07 01:10:49;;;;;;;9.73;2.28;;;;;;;25.31;44.21;95927.19;5023480;28;20032;-29
2023/08/07 01:13:34;;;;;;;11.40;3.03;;;;;;;25.29;44.10;95927.72;5023155;28;20024;-28
2023/08/07 01:16:13;;;;;;;9.50;2.08;;;;;;;25.25;44.58;95929.31;5025686;28;20550;-29
2023/08/07 01:18:40;;;;;;;10.98;2.78;;;;;;;25.30;44.79;95926.44;5024746;28;20033;-31
2023/08/07 01:21:06;;;;;;;8.00;2.47;;;;;;;25.50;44.82;95924.25;5023145;28;20057;-29
2023/08/07 01:23:32;;;;;;;9.82;2.47;;;;;;;25.54;44.69;95917.09;5020478;28;20022;-29
2023/08/07 01:25:57;;;;;;;7.70;2.30;;;;;;;25.36;45.13;95913.19;5024620;28;20036;-29
2023/08/07 01:28:30;;;;;;;7.53;2.08;;;;;;;25.34;45.63;95907.44;5019936;28;20021;-29
2023/08/07 01:30:59;;;;;;;;;;;;;;;25.23;46.15;95921.53;5017864;28;20026;-28
2023/08/07 01:33:32;;;;;;;9.75;2.20;;;;;;;25.47;45.78;95919.78;5025636;28;19916;-28
2023/08/07 01:36:01;;;;;;;6.80;2.10;;;;;;;25.51;45.81;95917.41;5033059;28;20489;-30
2023/08/07 01:38:28;;;;;;;9.23;2.45;;;;;;;25.71;45.63;95923.06;5018826;28;20026;-30
2023/08/07 01:40:54;;;;;;;14.80;2.97;;;;;;;25.70;46.16;95920.81;5019500;28;20030;-29
2023/08/07 01:43:20;;;;;;;9.75;2.60;;;;;;;25.87;46.63;95932.28;5029961;28;20034;-29
2023/08/07 01:45:46;;;;;;;10.38;2.92;;;;;;;25.34;48.73;95931.66;5022941;28;20033;-29
2023/08/07 01:48:11;;;;;;;12.73;2.80;;;;;;;25.33;48.32;95936.47;5022374;28;20042;-30
2023/08/07 01:50:39;;;;;;;11.80;2.92;;;;;;;25.54;48.31;95928.19;5018298;28;20504;-29
2023/08/07 01:53:05;;;;;;;11.10;3.38;;;;;;;25.69;48.49;95928.41;5025505;28;20046;-29
2023/08/07 01:55:30;;;;;;;10.18;3.17;;;;;;;25.65;48.93;95927.97;5023539;28;20124;-29
2023/08/07 01:57:56;;;;;;;10.77;3.22;;;;;;;25.79;48.60;95927.94;5020116;28;20108;-28
2023/08/07 02:00:22;;;;;;;13.30;4.00;;;;;;;25.79;49.51;95914.78;5025303;28;20389;-31
2023/08/07 02:02:47;;;;;;;11.38;3.42;;;;;;;25.86;49.57;95922.44;5024918;28;20079;-29
2023/08/07 02:05:14;;;;;;;13.82;3.28;;;;;;;25.90;49.32;95919.34;5026660;28;20018;-29
2023/08/07 02:07:39;;;;;;;14.52;3.28;;;;;;;25.80;50.29;95915.53;5022900;28;20025;-29
2023/08/07 02:10:05;;;;;;;14.45;3.92;;;;;;;25.77;50.47;95917.34;5028406;28;20482;-30
2023/08/07 02:12:32;;;;;;;16.48;4.10;;;;;;;25.77;50.70;95917.34;5021929;28;20033;-29
2023/08/07 02:15:00;;;;;;;14.80;4.45;;;;;;;25.78;50.92;95913.28;5016457;28;20438;-29
2023/08/07 02:17:27;;;;;;;16.58;3.78;;;;;;;25.86;50.99;95911.34;5019370;28;20025;-28
2023/08/07 02:19:53;;;;;;;17.20;4.90;;;;;;;25.72;51.57;95913.41;5022750;28;20026;-29
2023/08/07 02:22:19;;;;;;;15.60;4.63;;;;;;;25.72;51.32;95926.56;5020684;28;20014;-29
2023/08/07 02:24:44;;;;;;;16.58;4.38;;;;;;;25.70;51.62;95918.03;5014601;28;20109;-28
2023/08/07 02:27:10;;;;;;;18.60;4.45;;;;;;;25.70;51.85;95918.03;5024321;28;20508;-29
2023/08/07 02:29:35;;;;;;;16.23;4.07;;;;;;;25.62;52.11;95926.28;5019466;28;20022;-29
2023/08/07 02:32:04;;;;;;;12.60;4.60;;;;;;;25.74;51.59;95926.75;5022176;28;20025;-30
2023/08/07 02:34:30;;;;;;;15.85;3.95;;;;;;;25.84;51.57;95925.00;5026150;28;20029;-29
2023/08/07 02:36:56;;;;;;;15.02;3.47;;;;;;;25.80;51.52;95924.63;5024567;28;20458;-29
2023/08/07 02:39:22;;;;;;;16.63;4.82;;;;;;;25.77;51.69;95929.22;5021595;28;20014;-30
2023/08/07 02:41:48;;;;;;;16.30;4.05;;;;;;;25.79;51.69;95923.13;5018866;28;20494;-29
2023/08/07 02:44:13;;;;;;;9.93;3.78;;;;;;;25.79;51.67;95920.34;5023552;28;20116;-30
2023/08/07 02:46:39;;;;;;;17.67;3.75;;;;;;;25.84;51.16;95922.22;5018769;28;20366;-29
2023/08/07 02:49:04;;;;;;;18.08;4.20;;;;;;;25.66;51.77;95915.59;5024599;28;20516;-29
2023/08/07 02:51:30;;;;;;;10.60;3.35;;;;;;;25.72;51.71;95913.41;5021671;28;20033;-29
2023/08/07 02:53:56;;;;;;;22.20;3.90;;;;;;;25.82;51.41;95919.28;5021836;28;20105;-29
2023/08/07 02:56:21;;;;;;;12.68;3.65;;;;;;;25.74;51.57;95924.00;5012597;28;20030;-29
2023/08/07 02:58:47;;;;;;;14.50;3.63;;;;;;;25.72;51.60;95916.19;5021442;28;20390;-30
2023/08/07 03:01:13;;;;;;;20.67;4.28;;;;;;;25.50;52.49;95916.66;5021265;28;20386;-29
2023/08/07 03:03:38;;;;;;;18.30;4.15;;;;;;;25.71;51.98;95916.75;5022972;28;20025;-29
2023/08/07 03:06:04;;;;;;;12.63;4.00;;;;;;;25.53;52.30;95918.38;5024258;28;20381;-29
2023/08/07 03:08:29;;;;;;;14.68;4.85;;;;;;;25.55;52.82;95926.16;5023467;28;20017;-30
2023/08/07 03:10:56;;;;;;;16.35;4.13;;;;;;;25.45;53.05;95925.88;5021434;28;20092;-29
2023/08/07 03:13:23;;;;;;;19.38;4.90;;;;;;;25.70;52.54;95920.81;5020096;28;20017;-30
2023/08/07 03:15:51;;;;;;;13.75;3.78;;;;;;;25.63;52.32;95921.47;5023247;28;20022;-28
2023/08/07 03:18:17;;;;;;;14.50;4.35;;;;;;;25.68;52.42;95926.16;5026935;28;20018;-29
2023/08/07 03:20:43;;;;;;;21.48;5.30;;;;;;;25.66;52.63;95926.69;5020972;28;20087;-29
2023/08/07 03:23:09;;;;;;;17.25;4.63;;;;;;;25.76;52.61;95927.72;5015244;28;20376;-29
2023/08/07 03:25:35;;;;;;;17.90;4.63;;;;;;;25.66;52.50;95926.69;5024174;28;20026;-29
2023/08/07 03:28:00;;;;;;;13.63;3.90;;;;;;;25.77;51.91;95928.47;5014628;28;20017;-28
2023/08/07 03:30:26;;;;;;;18.83;4.35;;;;;;;25.75;52.30;95919.94;5020733;28;20521;-29
2023/08/07 03:32:52;;;;;;;12.90;3.78;;;;;;;25.67;52.49;95922.63;5013630;28;20030;-30
2023/08/07 03:35:17;;;;;;;21.90;4.18;;;;;;;25.79;52.07;95927.94;5020216;28;20362;-28
2023/08/07 03:37:43;;;;;;;16.20;3.65;;;;;;;25.55;52.50;95928.94;5020529;28;20037;-30
2023/08/07 03:40:08;;;;;;;13.13;3.58;;;;;;;25.51;52.59;95929.25;5020407;28;20030;-29
2023/08/07 03:42:34;;;;;;;17.02;4.38;;;;;;;25.66;52.23;95931.50;5017534;28;20017;-29
2023/08/07 03:44:59;;;;;;;12.90;3.88;;;;;;;25.79;51.43;95925.16;5016735;28;20133;-31
2023/08/07 03:47:25;;;;;;;13.10;4.60;;;;;;;25.70;51.89;95929.91;5020886;28;20021;-30
2023/08/07 03:49:51;;;;;;;12.48;4.30;;;;;;;25.45;52.36;95927.91;5020055;28;20128;-28
2023/08/07 03:52:17;;;;;;;15.35;3.90;;;;;;;25.31;52.82;95941.81;5020304;28;20021;-29
2023/08/07 03:54:43;;;;;;;12.73;4.68;;;;;;;25.45;53.00;95928.66;5024709;28;20021;-28
2023/08/07 03:57:10;;;;;;;10.07;3.67;;;;;;;25.22;52.99;95945.00;5023899;28;20393;-29
2023/08/07 03:59:35;;;;;;;15.65;4.65;;;;;;;25.24;53.03;95939.66;5014295;28;20030;-29
2023/08/07 04:02:00;;;;;;;13.95;4.05;;;;;;;25.23;53.15;95943.72;5017892;28;20033;-29
2023/08/07 04:04:26;;;;;;;14.35;3.97;;;;;;;25.30;53.06;95945.13;5020632;28;20030;-29
2023/08/07 04:06:51;;;;;;;14.68;3.90;;;;;;;25.22;53.21;95947.78;5023475;28;20025;-30
2023/08/07 04:09:17;;;;;;;14.13;4.30;;;;;;;25.22;53.16;95945.00;5017620;28;20096;-29
2023/08/07 04:11:42;;;;;;;15.82;3.90;;;;;;;25.11;53.43;95945.22;5020078;28;20068;-29
2023/08/07 04:14:08;;;;;;;11.48;3.20;;;;;;;25.21;52.73;95945.56;5020194;28;20028;-28
2023/08/07 04:16:33;;;;;;;14.07;3.47;;;;;;;25.19;53.38;95945.34;5027028;28;20083;-28
2023/08/07 04:18:59;;;;;;;14.85;3.47;;;;;;;25.54;52.23;95939.31;5020374;28;20098;-28
2023/08/07 04:21:24;;;;;;;13.50;3.40;;;;;;;25.44;52.36;95929.19;5018919;28;20032;-29
2023/08/07 04:23:50;;;;;;;10.07;3.10;;;;;;;25.55;51.69;95926.91;5021761;28;20108;-29
2023/08/07 04:26:15;;;;;;;18.83;4.13;;;;;;;25.51;52.13;95929.25;5019987;28;20370;-29
2023/08/07 04:28:41;;;;;;;14.07;3.42;;;;;;;25.52;52.10;95930.75;5020500;28;20068;-29
2023/08/07 04:31:08;;;;;;;17.08;3.55;;;;;;;25.62;52.02;95929.06;5021925;28;20079;-29
2023/08/07 04:33:33;;;;;;;13.15;3.97;;;;;;;25.39;52.63;95928.75;5022346;28;20120;-30
2023/08/07 04:35:59;;;;;;;13.50;3.80;;;;;;;25.37;52.93;95931.31;5024542;28;20041;-31
2023/08/07 04:38:25;;;;;;;15.57;3.72;;;;;;;25.53;52.26;95942.63;5023754;28;20022;-29
2023/08/07 04:40:51;;;;;;;19.85;4.65;;;;;;;25.45;52.65;95939.00;5023844;28;20037;-29
2023/08/07 04:43:17;;;;;;;14.63;3.90;;;;;;;25.57;52.39;95940.25;5024945;28;20022;-30
2023/08/07 04:45:44;;;;;;;16.42;3.97;;;;;;;25.58;52.13;95933.44;5022575;28;20108;-29
2023/08/07 04:48:13;;;;;;;11.63;4.30;;;;;;;25.68;51.61;95931.72;5023500;28;20128;-29
2023/08/07 04:50:39;;;;;;;12.93;3.15;;;;;;;25.32;52.45;95937.75;5016893;28;20482;-29
2023/08/07 04:53:05;;;;;;;14.20;4.43;;;;;;;25.51;52.00;95934.81;5023887;28;20041;-29
2023/08/07 04:55:31;;;;;;;13.55;3.30;;;;;;;25.47;51.79;95933.69;5024951;28;20033;-29
2023/08/07 04:57:57;;;;;;;12.73;3.40;;;;;;;25.52;51.53;95935.56;5026730;28;20025;-29
2023/08/07 05:00:24;;;;;;;11.88;3.00;;;;;;;25.45;51.46;95942.53;5025592;28;20029;-29
2023/08/07 05:02:50;;;;;;;11.43;3.22;;;;;;;25.35;52.09;95947.03;5023425;28;20050;-29
2023/08/07 05:05:17;;;;;;;12.57;3.42;;;;;;;25.59;51.66;95946.75;5022455;28;20059;-29
2023/08/07 05:07:42;;;;;;;14.38;3.72;;;;;;;25.62;51.73;95950.50;5024202;28;20577;-29
2023/08/07 05:10:09;;;;;;;17.85;4.75;;;;;;;25.37;52.41;95952.78;5021153;28;20104;-29
2023/08/07 05:12:34;;;;;;;16.08;4.60;;;;;;;25.50;52.42;95952.00;5026016;28;20056;-29
2023/08/07 05:15:00;;;;;;;16.00;4.38;;;;;;;25.51;52.41;95953.50;5026564;28;20057;-28
2023/08/07 05:17:25;;;;;;;11.75;4.00;;;;;;;25.52;52.41;95964.09;5020387;28;20026;-29
2023/08/07 05:19:51;;;;;;;18.65;4.30;;;;;;;25.64;52.23;95959.06;5024708;28;20022;-29
2023/08/07 05:22:16;;;;;;;17.85;4.95;;;;;;;25.70;51.93;95968.78;5029778;28;20065;-29
2023/08/07 05:24:43;;;;;;;14.25;4.90;;;;;;;25.50;52.85;95965.91;5023093;28;20022;-28
2023/08/07 05:27:09;;;;;;;18.95;6.57;;;;;;;25.50;53.06;95971.44;5023346;28;20018;-30
2023/08/07 05:29:43;;;;;;;20.42;7.00;;;;;;;25.35;53.62;95961.66;5023003;28;20072;-29
2023/08/07 05:32:09;;;;;;;20.20;6.65;;;;;;;25.22;54.52;95972.75;5022521;28;20493;-29
2023/08/07 05:34:36;;;;;;;15.73;6.45;;;;;;;25.22;54.45;95972.75;5023215;28;20018;-29
2023/08/07 05:37:01;;;;;;;18.38;6.05;;;;;;;25.30;54.25;95976.41;5022752;28;20497;-29
2023/08/07 05:39:27;;;;;;;16.77;6.18;;;;;;;25.27;54.57;95963.59;5022127;28;20064;-30
2023/08/07 05:41:54;;;;;;;18.60;5.70;;;;;;;25.41;54.35;95973.41;5015901;28;20030;-30
2023/08/07 05:44:20;;;;;;;16.08;5.43;;;;;;;25.44;54.42;95973.59;5024049;28;20064;-28
2023/08/07 05:46:45;;;;;;;15.43;5.60;;;;;;;25.57;54.32;95970.81;5028206;28;20058;-28
2023/08/07 05:49:11;;;;;;;15.52;5.63;;;;;;;25.61;54.02;95971.25;5022548;28;20092;-29
2023/08/07 05:51:36;;;;;;;13.68;5.18;;;;;;;25.52;54.33;95980.75;5030052;28;20541;-29
2023/08/07 05:54:02;;;;;;;16.42;5.53;;;;;;;25.45;54.83;95980.66;5022834;28;20046;-29
2023/08/07 05:56:27;;;;;;;21.15;8.25;;;;;;;25.44;54.62;95981.94;5016602;28;20478;-29
2023/08/07 05:58:53;;;;;;;20.33;6.97;;;;;;;25.50;54.60;95979.78;5021343;28;20106;-30
2023/08/07 06:01:18;;;;;;;18.55;6.55;;;;;;;25.64;54.16;95976.47;5022632;28;20401;-28
2023/08/07 06:03:44;;;;;;;18.67;5.65;;;;;;;25.73;53.80;95978.03;5024732;28;20025;-28
2023/08/07 06:06:09;;;;;;;19.67;6.03;;;;;;;25.63;54.13;95985.34;5025595;28;20018;-28
2023/08/07 06:08:34;;;;;;;16.38;5.40;;;;;;;25.69;54.61;95983.94;5017084;28;20026;-29
2023/08/07 06:11:03;;;;;;;20.30;5.45;;;;;;;25.63;54.19;95980.53;5022717;28;20026;-29
2023/08/07 06:13:29;;;;;;;21.20;6.47;;;;;;;25.62;54.17;95984.59;5022429;28;20023;-29
2023/08/07 06:15:54;;;;;;;19.50;6.32;;;;;;;25.50;54.61;95994.41;5022211;28;20024;-30
2023/08/07 06:18:20;;;;;;;18.30;5.45;;;;;;;25.49;54.81;95998.47;5019704;28;20043;-29
2023/08/07 06:20:46;;;;;;;17.98;5.38;;;;;;;25.77;53.54;95993.09;5024579;28;20088;-29
2023/08/07 06:23:12;;;;;;;15.50;5.38;;;;;;;25.68;53.68;95990.03;5017999;28;20025;-30
2023/08/07 06:25:37;;;;;;;16.85;5.13;;;;;;;25.68;54.14;96003.91;5025122;28;20431;-29
2023/08/07 06:28:03;;;;;;;14.00;4.90;;;;;;;25.71;53.91;96008.41;5015605;28;20017;-29
2023/08/07 06:30:30;;;;;;;17.50;5.03;;;;;;;25.70;53.85;95991.00;5024739;28;20049;-28
2023/08/07 06:32:56;;;;;;;15.60;5.38;;;;;;;25.71;54.06;95994.53;5023783;28;20026;-29
2023/08/07 06:35:21;;;;;;;13.15;4.20;;;;;;;25.75;53.69;96004.00;5022477;28;20091;-29
2023/08/07 06:37:47;;;;;;;15.20;4.35;;;;;;;25.72;53.85;96005.06;5021990;28;20536;-28
2023/08/07 06:40:12;;;;;;;13.77;4.13;;;;;;;25.86;53.54;96003.00;5021927;28;20076;-28
2023/08/07 06:42:38;;;;;;;14.27;4.20;;;;;;;25.80;53.90;96002.41;5021895;28;20427;-29
2023/08/07 06:45:04;;;;;;;23.55;4.85;;;;;;;25.73;53.94;95994.69;5021437;28;20025;-29
2023/08/07 06:47:29;;;;;;;12.43;4.50;;;;;;;25.77;53.62;96006.25;5021806;28;20029;-30
2023/08/07 06:49:55;;;;;;;14.13;4.55;;;;;;;25.81;53.59;96006.66;5021471;28;20084;-28
2023/08/07 06:52:20;;;;;;;10.45;3.95;;;;;;;25.78;53.69;96007.72;5021365;28;20025;-30
2023/08/07 06:54:46;;;;;;;17.40;4.18;;;;;;;25.91;53.76;96013.25;5012320;28;20040;-28
2023/08/07 06:57:11;;;;;;;15.75;4.30;;;;;;;25.83;53.11;96008.91;5022058;28;20114;-29
2023/08/07 06:59:38;;;;;;;12.98;3.67;;;;;;;25.87;53.17;96004.50;5028729;28;20080;-28
2023/08/07 07:02:04;;;;;;;11.57;3.78;;;;;;;25.89;52.92;96009.53;5019064;28;20488;-28
2023/08/07 07:04:29;;;;;;;15.30;4.45;;;;;;;25.94;53.08;96006.63;5015992;28;20025;-28
2023/08/07 07:06:55;;;;;;;13.77;3.60;;;;;;;25.78;53.28;96010.50;5019629;28;20018;-29
2023/08/07 07:09:20;;;;;;;11.07;3.42;;;;;;;25.84;53.62;96010.41;5027670;28;20025;-30
2023/08/07 07:11:46;;;;;;;13.48;3.63;;;;;;;25.86;53.22;96030.78;5021666;28;20032;-29
2023/08/07 07:14:11;;;;;;;12.98;3.28;;;;;;;25.82;53.34;96013.72;5018756;28;20075;-29
2023/08/07 07:16:37;;;;;;;15.98;3.92;;;;;;;25.93;52.88;96021.81;5016967;28;20018;-29
2023/08/07 07:19:03;;;;;;;14.27;4.47;;;;;;;25.91;53.28;96031.97;5021333;28;20021;-28
2023/08/07 07:21:29;;;;;;;14.50;4.38;;;;;;;26.17;52.59;96026.31;5021119;28;20045;-28
2023/08/07 07:23:54;;;;;;;15.98;3.83;;;;;;;25.92;52.81;96025.13;5014613;28;20031;-28
2023/08/07 07:26:20;;;;;;;10.73;3.33;;;;;;;26.09;52.69;96025.47;5019928;28;20030;-28
2023/08/07 07:28:45;;;;;;;12.65;4.15;;;;;;;26.02;52.28;96035.22;5020621;28;20022;-28
2023/08/07 07:31:11;;;;;;;18.55;4.00;;;;;;;25.82;53.30;96033.16;5021572;28;20493;-28
2023/08/07 07:33:39;;;;;;;13.68;3.78;;;;;;;26.01;52.97;96033.75;5019522;28;20025;-28
2023/08/07 07:36:06;;;;;;;16.95;4.00;;;;;;;26.16;52.38;96035.19;5015357;28;20025;-28
2023/08/07 07:38:31;;;;;;;12.38;2.95;;;;;;;26.06;53.07;96038.44;5022247;28;20025;-29
2023/08/07 07:40:57;;;;;;;16.20;3.80;;;;;;;26.02;52.71;96034.50;5016451;28;20374;-29
2023/08/07 07:43:23;;;;;;;13.35;3.50;;;;;;;26.06;53.00;96027.31;5022579;28;20026;-28
2023/08/07 07:45:49;;;;;;;12.35;3.20;;;;;;;26.04;52.64;96038.22;5019098;28;20485;-28
2023/08/07 07:48:14;;;;;;;16.50;4.22;;;;;;;26.11;52.73;96032.00;5020176;28;20050;-28
2023/08/07 07:50:41;;;;;;;15.77;5.50;;;;;;;26.34;52.01;96039.84;5023993;28;20033;-29
2023/08/07 07:53:06;;;;;;;15.20;3.97;;;;;;;26.10;52.24;96043.66;5023839;28;20021;-28
2023/08/07 07:55:34;;;;;;;11.15;3.20;;;;;;;26.23;51.49;96053.97;5021051;28;20994;-29
2023/08/07 07:57:59;;;;;;;11.05;3.13;;;;;;;26.16;52.20;96049.84;5020131;28;20022;-29
2023/08/07 08:00:27;;;;;;;11.90;3.55;;;;;;;26.18;51.70;96040.97;5019290;28;20022;-28
2023/08/07 08:02:53;;;;;;;11.35;3.17;;;;;;;26.24;51.34;96047.13;5023971;28;20424;-29
2023/08/07 08:05:19;;;;;;;9.95;2.90;;;;;;;26.14;51.20;96049.63;5024276;28;20044;-28
2023/08/07 08:07:45;;;;;;;12.70;3.42;;;;;;;26.07;50.95;96047.53;5024588;28;20474;-28
2023/08/07 08:10:10;;;;;;;10.38;3.33;;;;;;;26.18;50.99;96060.41;5024231;28;20485;-29
2023/08/07 08:12:36;;;;;;;11.55;4.05;;;;;;;26.11;50.83;96061.81;5024038;28;20084;-29
2023/08/07 08:15:03;;;;;;;12.05;3.13;;;;;;;26.04;50.69;96057.69;5031841;28;20429;-29
2023/08/07 08:17:28;;;;;;;10.18;2.72;;;;;;;25.99;50.15;96060.56;5023935;28;20100;-28
2023/08/07 08:19:54;;;;;;;11.13;3.15;;;;;;;26.24;49.80;96063.81;5019395;28;20538;-29
2023/08/07 08:22:20;;;;;;;12.25;3.38;;;;;;;26.20;50.07;96064.16;5022613;28;20036;-29
2023/08/07 08:24:47;;;;;;;13.05;3.08;;;;;;;25.95;50.45;96074.81;5031240;28;20029;-28
2023/08/07 08:27:13;;;;;;;9.55;3.00;;;;;;;26.12;49.93;96071.66;5024161;28;20097;-30
2023/08/07 08:29:38;;;;;;;10.18;3.33;;;;;;;26.20;49.14;96077.31;5023162;28;20517;-28
2023/08/07 08:32:04;;;;;;;12.68;3.03;;;;;;;26.03;49.86;96078.41;5019261;28;20026;-29
2023/08/07 08:34:30;;;;;;;8.68;2.88;;;;;;;25.90;50.04;96080.47;5023312;28;20484;-29
2023/08/07 08:36:55;;;;;;;12.32;2.75;;;;;;;25.97;49.24;96080.56;5023572;28;20025;-28
2023/08/07 08:39:20;;;;;;;10.05;3.75;;;;;;;26.09;49.28;96079.03;5024025;28;20022;-28
2023/08/07 08:41:49;;;;;;;7.90;2.65;;;;;;;26.08;49.74;96085.91;5022410;28;20082;-29
2023/08/07 08:44:17;;;;;;;13.70;2.90;;;;;;;26.19;50.06;96086.94;5023646;28;20425;-30
2023/08/07 08:46:43;;;;;;;11.90;3.40;;;;;;;26.10;49.53;96088.09;5020979;28;20025;-28
2023/08/07 08:49:10;;;;;;;9.48;2.88;;;;;;;26.32;49.43;96086.91;5026869;28;20037;-29
2023/08/07 08:51:40;;;;;;;12.82;3.83;;;;;;;26.02;49.46;96099.16;5019960;28;20380;-28
2023/08/07 08:54:06;;;;;;;12.75;3.15;;;;;;;26.17;49.18;96093.03;5020366;28;20033;-28
2023/08/07 08:56:31;;;;;;;12.68;3.22;;;;;;;26.06;49.03;96102.34;5030731;28;20036;-28
2023/08/07 08:58:57;;;;;;;10.27;3.28;;;;;;;26.23;48.70;96093.63;5016189;28;20022;-29
2023/08/07 09:01:24;;;;;;;14.25;3.22;;;;;;;26.15;49.10;96095.59;5030981;28;20025;-30
2023/08/07 09:03:49;;;;;;;10.90;3.10;;;;;;;26.34;48.17;96096.19;5023796;28;20048;-28
2023/08/07 09:06:15;;;;;;;5.80;2.28;;;;;;;26.18;48.68;96100.09;5029575;28;20021;-29
2023/08/07 09:08:42;;;;;;;9.23;2.30;;;;;;;26.45;47.93;96101.53;5025176;28;20021;-28
2023/08/07 09:11:09;;;;;;;8.57;2.55;;;;;;;26.41;46.62;96100.34;5026865;28;20036;-29
2023/08/07 09:13:37;;;;;;;7.20;2.40;;;;;;;26.47;46.17;96107.28;5025733;28;20021;-29
2023/08/07 09:16:04;;;;;;;7.57;2.38;;;;;;;26.37;45.30;96095.13;5026474;28;20017;-28
2023/08/07 09:18:29;;;;;;;6.30;2.10;;;;;;;26.50;45.02;96101.91;5026088;28;20485;-28
2023/08/07 09:20:57;;;;;;;5.50;2.17;;;;;;;26.55;43.64;96103.84;5018276;28;20030;-28
2023/08/07 09:23:24;;;;;;;6.25;2.28;;;;;;;26.66;43.10;96098.00;5028989;28;20369;-29
2023/08/07 09:25:59;;;;;;;6.25;1.67;;;;;;;26.58;44.88;96092.34;5023183;28;20468;-29
2023/08/07 09:28:25;;;;;;;5.32;1.60;;;;;;;26.70;43.37;96099.19;5022729;28;20049;-28
2023/08/07 09:30:52;;;;;;;3.72;1.50;;;;;;;26.84;42.63;96095.00;5022600;28;20104;-29
2023/08/07 09:33:25;;;;;;;6.82;2.13;;;;;;;26.82;43.73;96094.84;5023335;28;20505;-28
2023/08/07 09:35:50;;;;;;;4.70;1.80;;;;;;;26.66;42.23;96098.00;5022738;28;20025;-28
2023/08/07 09:38:16;;;;;;;5.65;1.45;;;;;;;26.69;42.06;96097.69;5022889;28;20029;-28
2023/08/07 09:40:42;;;;;;;4.40;1.60;;;;;;;26.78;40.88;96093.66;5027873;28;20120;-28
2023/08/07 09:43:08;;;;;;;5.68;1.55;;;;;;;26.70;41.01;96098.44;5025012;28;20025;-28
2023/08/07 09:45:36;;;;;;;2.80;1.17;;;;;;;26.87;40.86;96100.78;5025966;28;20025;-29
2023/08/07 09:48:02;;;;;;;3.78;1.40;;;;;;;26.91;38.75;96103.97;5025884;28;20060;-29
2023/08/07 09:50:28;;;;;;;4.22;1.40;;;;;;;26.82;39.15;96086.47;5016020;28;20061;-30
2023/08/07 09:52:55;;;;;;;5.10;1.45;;;;;;;26.96;39.52;96086.41;5022612;28;20037;-28
2023/08/07 09:55:21;;;;;;;4.32;1.58;;;;;;;26.88;38.95;96086.34;5022257;28;20025;-28
2023/08/07 09:57:48;;;;;;;3.58;1.20;;;;;;;26.87;38.27;96095.22;5024399;28;20017;-28
2023/08/07 10:00:15;;;;;;;4.03;1.05;;;;;;;26.91;38.08;96081.72;5026082;28;20033;-28
2023/08/07 10:02:43;;;;;;;3.10;1.20;;;;;;;26.87;37.10;96087.63;5022456;28;20465;-28
2023/08/07 10:05:10;;;;;;;6.47;1.55;;;;;;;27.05;37.09;96083.16;5020810;28;20050;-28
2023/08/07 10:07:38;;;;;;;3.97;1.13;;;;;;;27.04;37.14;96087.25;5023955;28;20021;-28
2023/08/07 10:10:04;;;;;;;10.02;1.45;;;;;;;26.99;38.31;96085.34;5018248;28;20108;-28
2023/08/07 10:12:31;;;;;;;3.38;1.20;;;;;;;26.91;37.19;96090.06;5024812;28;20025;-29
2023/08/07 10:14:58;;;;;;;3.90;1.30;;;;;;;27.07;37.16;96086.91;5022458;28;20025;-28
2023/08/07 10:17:24;;;;;;;4.85;1.00;;;;;;;26.91;35.34;96085.25;5022254;28;20037;-29
2023/08/07 10:19:51;;;;;;;3.90;1.10;;;;;;;27.03;36.24;96091.31;5027935;28;20025;-28
2023/08/07 10:22:19;;;;;;;5.25;1.48;;;;;;;26.98;35.96;96098.50;5015205;28;20026;-29
2023/08/07 10:24:48;;;;;;;3.05;1.15;;;;;;;26.93;34.83;96095.88;5029118;28;20028;-28
2023/08/07 10:27:16;;;;;;;3.28;1.20;;;;;;;26.88;35.38;96096.72;5025083;28;20103;-28
2023/08/07 10:29:43;;;;;;;3.97;0.95;;;;;;;26.91;34.27;96096.38;5024077;28;20095;-28
2023/08/07 10:32:10;;;;;;;5.88;1.40;;;;;;;26.85;34.60;96101.31;5021809;28;20030;-28
2023/08/07 10:34:39;;;;;;;6.47;1.02;;;;;;;27.02;35.33;96096.13;5021624;28;20022;-28
2023/08/07 10:37:08;;;;;;;1.98;0.80;;;;;;;26.87;34.69;96101.53;5021415;28;20025;-29
2023/08/07 10:39:34;;;;;;;4.78;1.40;;;;;;;27.08;35.34;96093.19;5019325;28;20523;-28
2023/08/07 10:42:00;;;;;;;5.55;1.13;;;;;;;27.01;34.26;96094.63;5024634;28;20033;-29
2023/08/07 10:44:30;;;;;;;3.50;1.00;;;;;;;27.10;34.70;96107.31;5022032;28;20025;-28
2023/08/07 10:46:57;;;;;;;2.78;1.00;;;;;;;27.08;34.82;96095.97;5020650;28;20025;-28
2023/08/07 10:49:34;;;;;;;5.05;1.05;;;;;;;27.12;35.46;96099.16;5022058;28;20412;-28
2023/08/07 10:52:09;;;;;;;3.60;1.10;;;;;;;27.05;35.49;96097.09;5014153;28;20375;-28
2023/08/07 10:54:51;;;;;;;4.20;1.48;;;;;;;27.11;35.34;96100.47;5015285;28;20136;-29
2023/08/07 10:57:18;;;;;;;7.70;1.75;;;;;;;27.22;35.82;96100.16;5020935;28;20032;-28
2023/08/07 10:59:50;;;;;;;4.07;1.35;;;;;;;27.11;35.34;96104.00;5028811;28;20026;-30
2023/08/07 11:02:25;;;;;;;3.25;1.05;;;;;;;27.13;35.33;96101.41;5021122;28;20382;-28
2023/08/07 11:04:52;;;;;;;3.67;1.40;;;;;;;27.06;34.68;96099.31;5024256;28;20107;-28
2023/08/07 11:07:28;;;;;;;2.72;1.10;;;;;;;27.13;34.67;96095.09;5024514;28;20018;-28
2023/08/07 11:09:54;;;;;;;4.63;1.63;;;;;;;27.27;35.35;96096.50;5023821;28;20091;-28
2023/08/07 11:12:20;;;;;;;4.95;1.30;;;;;;;27.05;34.54;96089.47;5018356;28;20026;-28
2023/08/07 11:14:46;;;;;;;3.65;1.40;;;;;;;27.16;34.68;96089.19;5022097;28;20076;-29
2023/08/07 11:17:12;;;;;;;3.38;1.48;;;;;;;27.13;35.42;96084.72;5019564;28;20018;-29
2023/08/07 11:19:38;;;;;;;2.25;1.10;;;;;;;27.30;35.63;96095.41;5012456;28;20484;-27
2023/08/07 11:22:04;;;;;;;6.68;1.58;;;;;;;27.14;35.33;96088.25;5020860;28;20026;-29
2023/08/07 11:24:29;;;;;;;3.63;1.50;;;;;;;27.29;34.99;96084.81;5019750;28;20460;-29
2023/08/07 11:26:57;;;;;;;3.63;0.98;;;;;;;27.24;34.69;96083.66;5021113;28;20079;-28